Time;durP1;ratioP1;P1;durP2;ratioP2;P2;SDS_P1;SDS_P2;PMS_P1;PMS_P2;Temp;Humidity;BMP_temperature;BMP_pressure;BME280_temperature;BME280_humidity;BME280_pressure;Samples;Min_cycle;Max_cycle;Signal;HPM_P1;HPM_P2
2024/01/23 00:02:00;;;;;;;0.30;0.30;;;2.10;99.90;;;;;;5090862;28;20215;-79
2024/01/23 00:04:26;;;;;;;0.30;0.20;;;2.10;99.90;;;;;;5088950;28;20210;-84
2024/01/23 00:06:51;;;;;;;0.30;0.30;;;2.10;99.90;;;;;;5090651;28;20204;-84
2024/01/23 00:09:17;;;;;;;0.30;0.30;;;2.10;99.90;;;;;;5089833;28;20236;-79
2024/01/23 00:11:43;;;;;;;0.30;0.30;;;2.10;99.90;;;;;;5089383;28;20384;-79
2024/01/23 00:14:09;;;;;;;0.30;0.20;;;2.10;99.90;;;;;;5090333;28;20201;-85
2024/01/23 00:16:35;;;;;;;0.30;0.30;;;2.10;99.90;;;;;;5090991;28;20204;-80
2024/01/23 00:19:01;;;;;;;0.30;0.20;;;2.10;99.90;;;;;;5088843;28;20794;-79
2024/01/23 00:21:26;;;;;;;0.30;0.30;;;2.10;99.90;;;;;;5090466;28;20484;-85
2024/01/23 00:23:52;;;;;;;0.30;0.20;;;2.10;99.90;;;;;;5089508;28;20769;-79
2024/01/23 00:26:18;;;;;;;0.30;0.30;;;2.10;99.90;;;;;;5089290;28;20176;-79
2024/01/23 00:28:43;;;;;;;0.30;0.20;;;2.10;99.90;;;;;;5088475;28;20754;-84
2024/01/23 00:31:09;;;;;;;0.30;0.20;;;2.10;99.90;;;;;;5090657;28;20425;-79
2024/01/23 00:33:35;;;;;;;0.30;0.30;;;2.10;99.90;;;;;;5090320;28;20188;-80
2024/01/23 00:36:01;;;;;;;0.30;0.30;;;2.10;99.90;;;;;;5088788;28;20177;-81
2024/01/23 00:38:26;;;;;;;0.30;0.30;;;2.00;99.90;;;;;;5088690;28;20700;-85
2024/01/23 00:40:52;;;;;;;0.30;0.30;;;2.00;99.90;;;;;;5090012;28;20160;-79
2024/01/23 00:43:18;;;;;;;0.30;0.20;;;1.90;99.90;;;;;;5089827;28;20680;-84
2024/01/23 00:45:43;;;;;;;0.30;0.30;;;2.00;99.90;;;;;;5090322;28;20177;-83
2024/01/23 00:48:09;;;;;;;0.30;0.20;;;2.00;99.90;;;;;;5088589;28;20203;-79
2024/01/23 00:50:35;;;;;;;0.30;0.30;;;2.00;99.90;;;;;;5090122;28;20634;-84
2024/01/23 00:53:00;;;;;;;0.30;0.30;;;2.00;99.90;;;;;;5089807;28;20232;-79
2024/01/23 00:55:26;;;;;;;0.30;0.30;;;2.00;99.90;;;;;;5090265;28;20203;-79
2024/01/23 00:57:51;;;;;;;0.30;0.30;;;2.00;99.90;;;;;;5089441;28;20216;-79
2024/01/23 01:00:17;;;;;;;0.30;0.20;;;1.90;99.90;;;;;;5088539;28;20269;-79
2024/01/23 01:02:43;;;;;;;0.30;0.30;;;1.90;99.90;;;;;;5089899;28;20785;-79
2024/01/23 01:05:09;;;;;;;0.30;0.20;;;1.90;99.90;;;;;;5089632;28;20195;-84
2024/01/23 01:07:34;;;;;;;0.30;0.20;;;1.90;99.90;;;;;;5088508;28;20542;-79
2024/01/23 01:10:00;;;;;;;0.30;0.30;;;1.90;99.90;;;;;;5088875;28;20677;-85
2024/01/23 01:12:26;;;;;;;0.30;0.30;;;1.90;99.90;;;;;;5088415;28;20550;-85
2024/01/23 01:14:51;;;;;;;0.30;0.30;;;1.90;99.90;;;;;;5089615;28;20184;-79
2024/01/23 01:17:17;;;;;;;0.30;0.30;;;1.90;99.90;;;;;;5089668;28;20200;-83
2024/01/23 01:19:43;;;;;;;0.30;0.30;;;1.90;99.90;;;;;;5087852;28;20205;-85
2024/01/23 01:22:08;;;;;;;0.30;0.30;;;1.90;99.90;;;;;;5088406;28;20559;-83
2024/01/23 01:24:35;;;;;;;0.30;0.20;;;1.90;99.90;;;;;;5088756;28;20559;-85
2024/01/23 01:27:01;;;;;;;0.30;0.30;;;1.90;99.90;;;;;;5087876;28;20698;-79
2024/01/23 01:29:26;;;;;;;0.30;0.30;;;1.80;99.90;;;;;;5089158;28;20205;-85
2024/01/23 01:31:52;;;;;;;0.30;0.30;;;1.80;99.90;;;;;;5088587;28;20892;-83
2024/01/23 01:34:18;;;;;;;0.30;0.30;;;1.80;99.90;;;;;;5089226;28;20435;-84
2024/01/23 01:36:44;;;;;;;0.30;0.30;;;1.70;99.90;;;;;;5088360;28;20442;-84
2024/01/23 01:39:12;;;;;;;0.30;0.30;;;1.70;99.90;;;;;;5089016;28;20200;-79
2024/01/23 01:41:37;;;;;;;0.30;0.30;;;1.70;99.90;;;;;;5088384;28;20242;-84
2024/01/23 01:44:03;;;;;;;0.30;0.30;;;1.60;99.90;;;;;;5087702;28;20756;-84
2024/01/23 01:46:29;;;;;;;0.30;0.30;;;1.60;99.90;;;;;;5089847;28;20172;-83
2024/01/23 01:48:55;;;;;;;0.30;0.30;;;1.60;99.90;;;;;;5089006;28;20200;-79
2024/01/23 01:51:25;;;;;;;0.30;0.30;;;1.50;99.90;;;;;;5089689;28;20184;-79
2024/01/23 01:53:51;;;;;;;0.30;0.30;;;1.50;99.90;;;;;;5089374;28;20688;-79
2024/01/23 01:56:23;;;;;;;0.30;0.30;;;1.50;99.90;;;;;;5087833;28;20180;-84
2024/01/23 01:58:49;;;;;;;0.30;0.30;;;1.40;99.90;;;;;;5087829;28;20208;-84
2024/01/23 02:01:15;;;;;;;0.30;0.20;;;1.40;99.90;;;;;;5089265;28;20626;-84
2024/01/23 02:03:41;;;;;;;0.30;0.30;;;1.40;99.90;;;;;;5087781;28;20208;-79
2024/01/23 02:06:07;;;;;;;0.30;0.30;;;1.30;99.90;;;;;;5087798;28;20456;-84
2024/01/23 02:08:35;;;;;;;0.52;0.52;;;1.30;99.90;;;;;;5088298;28;20205;-84
2024/01/23 02:11:02;;;;;;;0.30;0.30;;;1.20;99.90;;;;;;5092415;28;20746;-85
2024/01/23 02:13:28;;;;;;;0.30;0.30;;;1.20;99.90;;;;;;5091560;28;20566;-79
2024/01/23 02:15:54;;;;;;;0.30;0.30;;;1.10;99.90;;;;;;5091457;28;20173;-82
2024/01/23 02:18:19;;;;;;;0.30;0.30;;;1.10;99.90;;;;;;5091359;28;20216;-79
2024/01/23 02:20:45;;;;;;;0.30;0.30;;;1.10;99.90;;;;;;5091407;28;20914;-83
2024/01/23 02:23:15;;;;;;;0.30;0.30;;;1.10;99.90;;;;;;5092512;28;20753;-79
2024/01/23 02:25:41;;;;;;;0.30;0.30;;;1.10;99.90;;;;;;5091505;28;20200;-84
2024/01/23 02:28:08;;;;;;;0.30;0.30;;;1.00;99.90;;;;;;5092546;28;20189;-79
2024/01/23 02:30:35;;;;;;;0.30;0.30;;;1.00;99.90;;;;;;5092742;28;20184;-84
2024/01/23 02:33:03;;;;;;;0.30;0.30;;;1.00;99.90;;;;;;5092759;28;20200;-79
2024/01/23 02:35:30;;;;;;;0.30;0.30;;;0.90;99.90;;;;;;5092616;28;20183;-79
2024/01/23 02:37:56;;;;;;;0.30;0.30;;;0.90;99.90;;;;;;5092264;28;20449;-79
2024/01/23 02:40:21;;;;;;;0.30;0.30;;;0.80;99.90;;;;;;5091102;28;20184;-84
2024/01/23 02:42:47;;;;;;;0.30;0.30;;;0.80;99.90;;;;;;5090920;28;20430;-84
2024/01/23 02:45:12;;;;;;;0.30;0.20;;;0.70;99.90;;;;;;5092328;28;20187;-79
2024/01/23 02:47:38;;;;;;;0.30;0.30;;;0.70;99.90;;;;;;5092596;28;20177;-79
2024/01/23 02:50:04;;;;;;;0.30;0.30;;;0.70;99.90;;;;;;5090933;28;20208;-79
2024/01/23 02:52:31;;;;;;;0.30;0.30;;;0.80;99.90;;;;;;5092221;28;20173;-80
2024/01/23 02:54:58;;;;;;;0.30;0.30;;;0.80;99.90;;;;;;5090543;28;20185;-85
2024/01/23 02:57:27;;;;;;;0.30;0.30;;;0.80;99.90;;;;;;5092585;28;20200;-84
2024/01/23 02:59:53;;;;;;;0.30;0.30;;;0.90;99.90;;;;;;5092085;28;20177;-79
2024/01/23 03:02:20;;;;;;;0.30;0.30;;;0.90;99.90;;;;;;5092308;28;20227;-85
2024/01/23 03:04:46;;;;;;;0.30;0.30;;;1.00;99.90;;;;;;5091987;28;20238;-79
2024/01/23 03:07:12;;;;;;;0.30;0.30;;;1.00;99.90;;;;;;5091902;28;20176;-83
2024/01/23 03:09:37;;;;;;;0.30;0.30;;;1.00;99.90;;;;;;5090931;28;20224;-79
2024/01/23 03:12:17;;;;;;;0.30;0.30;;;1.10;99.90;;;;;;5090131;28;20211;-82
2024/01/23 03:14:47;;;;;;;0.30;0.30;;;1.10;99.90;;;;;;5090395;28;20208;-84
2024/01/23 03:17:15;;;;;;;0.30;0.30;;;1.10;99.90;;;;;;5090625;28;20768;-79
2024/01/23 03:19:42;;;;;;;0.30;0.30;;;1.10;99.90;;;;;;5090248;28;20204;-79
2024/01/23 03:22:08;;;;;;;0.30;0.30;;;1.10;99.90;;;;;;5089821;28;20172;-79
2024/01/23 03:24:36;;;;;;;0.30;0.30;;;1.20;99.90;;;;;;5089624;28;20207;-83
2024/01/23 03:27:03;;;;;;;0.30;0.30;;;1.20;99.90;;;;;;5089637;28;20179;-79
2024/01/23 03:29:29;;;;;;;0.30;0.20;;;1.20;99.90;;;;;;5089983;28;20501;-79
2024/01/23 03:31:55;;;;;;;0.30;0.30;;;1.20;99.90;;;;;;5090148;28;20184;-79
2024/01/23 03:34:21;;;;;;;0.30;0.30;;;1.20;99.90;;;;;;5091136;28;20212;-79
2024/01/23 03:36:46;;;;;;;0.30;0.30;;;1.30;99.90;;;;;;5091657;28;20204;-84
2024/01/23 03:39:12;;;;;;;0.30;0.30;;;1.30;99.90;;;;;;5091214;28;20463;-79
2024/01/23 03:41:38;;;;;;;0.30;0.30;;;1.30;99.90;;;;;;5091513;28;20220;-83
2024/01/23 03:44:08;;;;;;;0.30;0.30;;;1.30;99.90;;;;;;5089441;28;20688;-79
2024/01/23 03:46:33;;;;;;;0.30;0.30;;;1.30;99.90;;;;;;5091647;28;20176;-84
2024/01/23 03:48:59;;;;;;;0.30;0.30;;;1.20;99.90;;;;;;5089325;28;20532;-79
2024/01/23 03:51:25;;;;;;;0.30;0.30;;;1.30;99.90;;;;;;5091191;28;20169;-84
2024/01/23 03:53:51;;;;;;;0.30;0.20;;;1.30;99.90;;;;;;5089043;28;20506;-79
2024/01/23 03:56:17;;;;;;;0.30;0.30;;;1.30;99.90;;;;;;5089736;28;20384;-84
2024/01/23 03:58:42;;;;;;;0.30;0.30;;;1.30;99.90;;;;;;5089372;28;20204;-79
2024/01/23 04:01:08;;;;;;;0.30;0.30;;;1.20;99.90;;;;;;5090923;28;20391;-79
2024/01/23 04:03:34;;;;;;;0.30;0.30;;;1.30;99.90;;;;;;5090914;28;20196;-84
2024/01/23 04:06:00;;;;;;;0.30;0.30;;;1.30;99.90;;;;;;5089656;28;20444;-78
2024/01/23 04:08:26;;;;;;;0.30;0.30;;;1.20;99.90;;;;;;5088974;28;20219;-79
2024/01/23 04:10:52;;;;;;;0.30;0.30;;;1.20;99.90;;;;;;5090417;28;20841;-85
2024/01/23 04:13:17;;;;;;;0.30;0.20;;;1.20;99.90;;;;;;5090306;28;20277;-79
2024/01/23 04:15:43;;;;;;;0.30;0.30;;;1.30;99.90;;;;;;5089372;28;20180;-83
2024/01/23 04:18:09;;;;;;;0.30;0.30;;;1.30;99.90;;;;;;5090381;28;20552;-85
2024/01/23 04:20:34;;;;;;;0.30;0.30;;;1.40;99.90;;;;;;5090306;28;20749;-79
2024/01/23 04:23:00;;;;;;;0.30;0.30;;;1.40;99.90;;;;;;5090215;28;20191;-85
2024/01/23 04:25:26;;;;;;;0.30;0.20;;;1.50;99.90;;;;;;5089647;28;20176;-85
2024/01/23 04:27:53;;;;;;;0.30;0.30;;;1.60;99.90;;;;;;5090411;28;20223;-85
2024/01/23 04:30:19;;;;;;;0.30;0.30;;;1.70;99.90;;;;;;5090531;28;20172;-79
2024/01/23 04:32:45;;;;;;;0.30;0.30;;;1.70;99.90;;;;;;5089666;28;20295;-84
2024/01/23 04:35:12;;;;;;;0.30;0.30;;;1.70;99.90;;;;;;5090370;28;20187;-85
2024/01/23 04:37:38;;;;;;;0.30;0.20;;;1.70;99.90;;;;;;5089004;28;20461;-85
2024/01/23 04:40:07;;;;;;;0.30;0.30;;;1.80;99.90;;;;;;5090438;28;20251;-78
2024/01/23 04:42:33;;;;;;;0.30;0.30;;;1.80;99.90;;;;;;5088977;28;20168;-79
2024/01/23 04:44:59;;;;;;;0.30;0.30;;;1.90;99.90;;;;;;5089852;28;20180;-83
2024/01/23 04:47:25;;;;;;;0.30;0.30;;;1.90;99.90;;;;;;5089969;28;20258;-79
2024/01/23 04:49:54;;;;;;;0.30;0.30;;;2.00;99.90;;;;;;5090114;28;20207;-79
2024/01/23 04:52:20;;;;;;;0.30;0.30;;;1.90;99.90;;;;;;5088663;28;20229;-85
2024/01/23 04:54:45;;;;;;;0.30;0.27;;;1.90;99.90;;;;;;5088262;28;20271;-85
2024/01/23 04:57:13;;;;;;;0.30;0.30;;;2.00;99.90;;;;;;5088820;28;20466;-84
2024/01/23 04:59:39;;;;;;;0.30;0.30;;;2.00;99.90;;;;;;5087965;28;20208;-85
2024/01/23 05:02:05;;;;;;;0.30;0.20;;;2.00;99.90;;;;;;5086793;28;20290;-84
2024/01/23 05:04:31;;;;;;;0.30;0.30;;;2.10;99.90;;;;;;5088846;28;20548;-85
2024/01/23 05:06:57;;;;;;;0.30;0.30;;;2.10;99.90;;;;;;5088447;28;20557;-85
2024/01/23 05:09:22;;;;;;;0.30;0.30;;;2.20;99.90;;;;;;5084942;28;20611;-86
2024/01/23 05:11:48;;;;;;;0.30;0.30;;;2.20;99.90;;;;;;5085259;28;20173;-79
2024/01/23 05:14:18;;;;;;;0.30;0.20;;;2.20;99.90;;;;;;5067018;28;20278;-79
2024/01/23 05:16:44;;;;;;;0.30;0.30;;;2.20;99.90;;;;;;5067966;28;20900;-86
2024/01/23 05:19:09;;;;;;;0.30;0.20;;;2.20;99.90;;;;;;5068766;28;20197;-86
2024/01/23 05:21:35;;;;;;;0.30;0.20;;;2.30;99.90;;;;;;5069559;28;20410;-85
2024/01/23 05:24:02;;;;;;;0.30;0.20;;;2.30;99.90;;;;;;5069546;28;20294;-79
2024/01/23 05:26:28;;;;;;;0.30;0.30;;;2.40;99.90;;;;;;5083274;28;20272;-79
2024/01/23 05:28:54;;;;;;;0.30;0.30;;;2.40;99.90;;;;;;5080584;28;20295;-86
2024/01/23 05:31:19;;;;;;;0.30;0.30;;;2.50;99.90;;;;;;5078313;28;20183;-85
2024/01/23 05:33:45;;;;;;;0.30;0.27;;;2.50;99.90;;;;;;5082998;28;20211;-86
2024/01/23 05:36:11;;;;;;;0.30;0.30;;;2.60;99.90;;;;;;5085141;28;20571;-79
2024/01/23 05:38:36;;;;;;;0.30;0.30;;;2.60;99.90;;;;;;5085041;28;20232;-86
2024/01/23 05:41:03;;;;;;;0.30;0.30;;;2.60;99.90;;;;;;5085842;28;20215;-78
2024/01/23 05:43:29;;;;;;;0.30;0.30;;;2.60;99.90;;;;;;5086794;28;20264;-85
2024/01/23 05:45:54;;;;;;;0.30;0.20;;;2.70;99.90;;;;;;5092216;28;20180;-79
2024/01/23 05:48:20;;;;;;;0.30;0.30;;;2.70;99.90;;;;;;5090013;28;20523;-79
2024/01/23 05:50:46;;;;;;;0.30;0.20;;;2.70;99.90;;;;;;5086209;28;20184;-86
2024/01/23 05:53:11;;;;;;;0.30;0.30;;;2.80;99.90;;;;;;5091700;28;20204;-79
2024/01/23 05:55:37;;;;;;;0.30;0.20;;;2.80;99.90;;;;;;5090162;28;20180;-79
2024/01/23 05:58:03;;;;;;;0.30;0.30;;;2.80;99.90;;;;;;5090155;28;20839;-86
2024/01/23 06:00:29;;;;;;;0.30;0.30;;;2.80;99.90;;;;;;5087075;28;20219;-78
2024/01/23 06:02:54;;;;;;;0.30;0.30;;;2.80;99.90;;;;;;5090404;28;20418;-79
2024/01/23 06:05:20;;;;;;;0.30;0.20;;;2.80;99.90;;;;;;5088438;28;20249;-85
2024/01/23 06:07:49;;;;;;;0.30;0.30;;;2.80;99.90;;;;;;5089372;28;20207;-86
2024/01/23 06:10:16;;;;;;;0.30;0.30;;;2.80;99.90;;;;;;5087619;28;20246;-85
2024/01/23 06:12:42;;;;;;;0.30;0.30;;;2.80;99.90;;;;;;5088952;28;20200;-85
2024/01/23 06:15:08;;;;;;;0.30;0.30;;;2.80;99.90;;;;;;5089806;28;20188;-79
2024/01/23 06:17:34;;;;;;;0.30;0.20;;;2.90;99.90;;;;;;5090910;28;20258;-85
2024/01/23 06:20:03;;;;;;;0.30;0.20;;;2.90;99.90;;;;;;5088274;28;20189;-85
2024/01/23 06:22:30;;;;;;;0.30;0.20;;;2.90;99.90;;;;;;5090419;28;20956;-78
2024/01/23 06:25:07;;;;;;;0.30;0.20;;;2.90;99.90;;;;;;5087510;28;20249;-81
2024/01/23 06:27:33;;;;;;;0.30;0.30;;;2.90;99.90;;;;;;5089635;28;20203;-80
2024/01/23 06:29:58;;;;;;;0.30;0.20;;;2.90;99.90;;;;;;5085938;28;20722;-86
2024/01/23 06:32:24;;;;;;;0.30;0.20;;;3.00;99.90;;;;;;5090771;28;20439;-86
2024/01/23 06:34:53;;;;;;;0.30;0.20;;;3.00;99.90;;;;;;5085351;28;20840;-79
2024/01/23 06:37:20;;;;;;;0.30;0.20;;;3.00;99.90;;;;;;5085757;28;20234;-85
2024/01/23 06:39:46;;;;;;;0.30;0.20;;;3.00;99.90;;;;;;5087819;28;20513;-86
2024/01/23 06:42:11;;;;;;;0.30;0.30;;;3.00;99.90;;;;;;5087394;28;20199;-85
2024/01/23 06:44:39;;;;;;;0.30;0.30;;;3.00;99.90;;;;;;5085774;28;20201;-79
2024/01/23 06:47:04;;;;;;;0.30;0.30;;;3.00;99.90;;;;;;5087035;28;20192;-85
2024/01/23 06:49:30;;;;;;;0.30;0.20;;;3.00;99.90;;;;;;5089375;28;20240;-86
2024/01/23 06:51:56;;;;;;;0.30;0.30;;;3.00;99.90;;;;;;5085276;28;20532;-85
2024/01/23 06:54:22;;;;;;;0.30;0.30;;;3.00;99.90;;;;;;5085311;28;20204;-79
2024/01/23 06:56:47;;;;;;;0.30;0.20;;;3.00;99.90;;;;;;5084606;28;20484;-79
2024/01/23 06:59:13;;;;;;;0.30;0.20;;;3.00;99.90;;;;;;5085804;28;20253;-79
2024/01/23 07:01:39;;;;;;;0.30;0.30;;;3.00;99.90;;;;;;5084359;28;20214;-78
2024/01/23 07:04:05;;;;;;;0.30;0.20;;;3.00;99.90;;;;;;5084690;28;20545;-78
2024/01/23 07:06:31;;;;;;;0.30;0.20;;;3.00;99.90;;;;;;5083586;28;20417;-84
2024/01/23 07:08:57;;;;;;;0.30;0.30;;;3.00;99.90;;;;;;5079659;28;20219;-85
2024/01/23 07:11:23;;;;;;;0.30;0.20;;;3.00;99.90;;;;;;5076843;28;20281;-85
2024/01/23 07:13:49;;;;;;;0.30;0.30;;;3.00;99.90;;;;;;5079673;28;20661;-85
2024/01/23 07:16:15;;;;;;;0.30;0.30;;;3.00;99.90;;;;;;5085125;28;20425;-79
2024/01/23 07:18:41;;;;;;;0.30;0.30;;;2.90;99.90;;;;;;5088455;28;20228;-86
2024/01/23 07:21:07;;;;;;;0.30;0.30;;;2.90;99.90;;;;;;5087528;28;20189;-79
2024/01/23 07:23:36;;;;;;;0.30;0.20;;;2.90;99.90;;;;;;5087188;28;20206;-79
2024/01/23 07:26:02;;;;;;;0.30;0.22;;;3.00;99.90;;;;;;5086022;28;20188;-85
2024/01/23 07:28:28;;;;;;;0.30;0.30;;;3.00;99.90;;;;;;5081640;28;20204;-86
2024/01/23 07:30:54;;;;;;;0.30;0.30;;;3.00;99.90;;;;;;5075316;28;20221;-78
2024/01/23 07:33:20;;;;;;;0.30;0.20;;;3.00;99.90;;;;;;5086003;28;20205;-85
2024/01/23 07:35:46;;;;;;;0.30;0.30;;;3.00;99.90;;;;;;5082839;28;20685;-85
2024/01/23 07:38:11;;;;;;;0.30;0.30;;;3.00;99.90;;;;;;5081795;28;20307;-86
2024/01/23 07:40:38;;;;;;;0.30;0.30;;;3.00;99.90;;;;;;5083545;28;20183;-86
2024/01/23 07:43:04;;;;;;;0.30;0.20;;;3.00;99.90;;;;;;5077596;28;20453;-78
2024/01/23 07:45:29;;;;;;;0.30;0.20;;;3.00;99.90;;;;;;5108401;27;20181;-79
2024/01/23 07:47:55;;;;;;;0.30;0.20;;;3.00;99.90;;;;;;5078325;28;20197;-86
2024/01/23 07:50:21;;;;;;;0.30;0.30;;;3.00;99.90;;;;;;5081609;28;20433;-78
2024/01/23 07:52:47;;;;;;;0.30;0.30;;;3.00;99.90;;;;;;5076914;28;20867;-86
2024/01/23 07:55:12;;;;;;;0.30;0.30;;;3.10;99.90;;;;;;5079439;28;20179;-79
2024/01/23 07:57:38;;;;;;;0.30;0.30;;;3.10;99.90;;;;;;5078699;28;20220;-79
2024/01/23 08:00:05;;;;;;;0.30;0.30;;;3.00;99.90;;;;;;5077889;28;20555;-79
2024/01/23 08:02:31;;;;;;;0.30;0.30;;;3.00;99.90;;;;;;5081310;28;20263;-86
2024/01/23 08:04:58;;;;;;;0.30;0.30;;;3.00;99.90;;;;;;5080416;28;20215;-79
2024/01/23 08:07:24;;;;;;;0.30;0.30;;;3.10;99.90;;;;;;5081700;28;20275;-86
2024/01/23 08:09:49;;;;;;;0.30;0.30;;;3.10;99.90;;;;;;5081765;28;20814;-79
2024/01/23 08:12:15;;;;;;;0.30;0.30;;;3.20;99.90;;;;;;5080622;28;20185;-79
2024/01/23 08:14:41;;;;;;;0.30;0.30;;;3.40;99.90;;;;;;5076513;28;20219;-79
2024/01/23 08:17:07;;;;;;;0.30;0.20;;;3.50;99.90;;;;;;5083221;28;20468;-85
2024/01/23 08:19:33;;;;;;;0.30;0.20;;;3.70;99.90;;;;;;5086394;28;20969;-79
2024/01/23 08:21:58;;;;;;;0.30;0.30;;;3.80;99.90;;;;;;5077298;28;20176;-79
2024/01/23 08:24:24;;;;;;;0.30;0.30;;;3.90;99.90;;;;;;5075286;28;20197;-79
2024/01/23 08:26:52;;;;;;;0.30;0.20;;;3.90;99.90;;;;;;5081914;28;20180;-84
2024/01/23 08:29:19;;;;;;;0.30;0.30;;;4.00;99.90;;;;;;5079827;28;20223;-79
2024/01/23 08:31:45;;;;;;;0.30;0.20;;;4.00;99.90;;;;;;5085159;28;20550;-79
2024/01/23 08:34:11;;;;;;;0.30;0.20;;;4.00;99.90;;;;;;5081222;28;20234;-79
2024/01/23 08:36:37;;;;;;;0.30;0.20;;;4.00;99.90;;;;;;5079920;28;20184;-79
2024/01/23 08:39:04;;;;;;;0.30;0.30;;;4.00;99.90;;;;;;5081990;28;20208;-86
2024/01/23 08:41:30;;;;;;;0.30;0.30;;;4.00;99.90;;;;;;5084179;28;20180;-86
2024/01/23 08:43:56;;;;;;;0.30;0.30;;;4.00;99.90;;;;;;5083885;28;20258;-79
2024/01/23 08:46:22;;;;;;;0.30;0.30;;;4.10;99.90;;;;;;5081714;28;20184;-85
2024/01/23 08:48:49;;;;;;;0.30;0.30;;;4.20;99.90;;;;;;5085202;28;20604;-79
2024/01/23 08:51:15;;;;;;;0.30;0.20;;;4.40;99.90;;;;;;5079597;28;20185;-86
2024/01/23 08:53:40;;;;;;;0.30;0.20;;;4.40;99.90;;;;;;5080359;28;20220;-79
2024/01/23 08:56:06;;;;;;;0.30;0.20;;;4.40;99.90;;;;;;5085345;28;20494;-79
2024/01/23 08:58:32;;;;;;;0.30;0.30;;;4.40;99.90;;;;;;5078828;28;21129;-86
2024/01/23 09:00:58;;;;;;;0.30;0.30;;;4.40;99.90;;;;;;5080128;28;20184;-85
2024/01/23 09:03:24;;;;;;;0.30;0.20;;;4.40;99.90;;;;;;5083943;28;20690;-86
2024/01/23 09:05:50;;;;;;;0.30;0.20;;;4.40;99.90;;;;;;5081688;28;20268;-79
2024/01/23 09:08:16;;;;;;;0.30;0.30;;;4.40;99.90;;;;;;5075221;28;20196;-87
2024/01/23 09:10:42;;;;;;;0.30;0.30;;;4.30;99.90;;;;;;5084902;28;20259;-79
2024/01/23 09:13:08;;;;;;;0.30;0.20;;;4.30;99.90;;;;;;5082737;28;20303;-78
2024/01/23 09:15:34;;;;;;;0.30;0.30;;;4.40;99.90;;;;;;5080703;28;20452;-86
2024/01/23 09:18:00;;;;;;;0.30;0.20;;;4.50;99.90;;;;;;5080493;28;20483;-85
2024/01/23 09:20:26;;;;;;;0.30;0.30;;;4.70;99.90;;;;;;5083591;28;20176;-79
2024/01/23 09:22:52;;;;;;;0.30;0.30;;;4.90;99.90;;;;;;5084810;28;20235;-86
2024/01/23 09:25:21;;;;;;;0.30;0.30;;;5.20;99.90;;;;;;5085606;28;20441;-86
2024/01/23 09:27:48;;;;;;;0.30;0.20;;;5.40;99.90;;;;;;5083342;28;20209;-79
2024/01/23 09:30:14;;;;;;;0.30;0.28;;;5.50;99.90;;;;;;5081688;28;20218;-79
2024/01/23 09:32:40;;;;;;;0.30;0.20;;;5.50;99.90;;;;;;5082506;28;20204;-85
2024/01/23 09:35:06;;;;;;;0.30;0.20;;;5.50;99.90;;;;;;5080980;28;20199;-79
2024/01/23 09:37:32;;;;;;;1.02;1.00;;;5.50;99.90;;;;;;5077101;28;20250;-79
2024/01/23 09:39:58;;;;;;;0.30;0.30;;;5.50;99.90;;;;;;5079184;28;20188;-79
2024/01/23 09:42:25;;;;;;;0.63;0.63;;;5.50;99.90;;;;;;5079295;28;20177;-86
2024/01/23 09:44:53;;;;;;;0.30;0.30;;;5.60;99.90;;;;;;5082803;28;20432;-78
2024/01/23 09:47:24;;;;;;;0.30;0.30;;;5.60;99.90;;;;;;5079018;28;20790;-79
2024/01/23 09:49:51;;;;;;;0.30;0.20;;;5.60;99.90;;;;;;5082849;28;20200;-79
2024/01/23 09:52:18;;;;;;;0.30;0.28;;;5.70;99.90;;;;;;5075919;28;20700;-86
2024/01/23 09:54:44;;;;;;;0.30;0.22;;;5.70;99.90;;;;;;5082433;28;20351;-80
2024/01/23 09:57:12;;;;;;;0.30;0.30;;;5.70;99.90;;;;;;5081993;28;20302;-85
2024/01/23 09:59:38;;;;;;;0.30;0.20;;;5.70;99.90;;;;;;5073963;28;20568;-86
2024/01/23 10:02:05;;;;;;;0.30;0.20;;;5.70;99.90;;;;;;5073827;28;20705;-86
2024/01/23 10:04:33;;;;;;;0.30;0.30;;;5.70;99.90;;;;;;5079836;28;20239;-79
2024/01/23 10:07:05;;;;;;;0.30;0.20;;;5.60;99.90;;;;;;5078991;28;20184;-79
2024/01/23 10:09:31;;;;;;;0.30;0.20;;;5.60;99.90;;;;;;5081626;28;20235;-78
2024/01/23 10:11:57;;;;;;;0.30;0.20;;;5.60;99.90;;;;;;5079562;28;20186;-79
2024/01/23 10:14:22;;;;;;;0.30;0.20;;;5.60;99.90;;;;;;5079698;28;20211;-79
2024/01/23 10:16:48;;;;;;;0.30;0.30;;;5.60;99.90;;;;;;5071185;28;20828;-79
2024/01/23 10:19:14;;;;;;;0.30;0.20;;;5.60;99.90;;;;;;5077969;28;20228;-86
2024/01/23 10:21:40;;;;;;;0.30;0.30;;;5.60;99.90;;;;;;5082564;28;20177;-85
2024/01/23 10:24:07;;;;;;;0.30;0.20;;;5.60;99.90;;;;;;5083005;28;20260;-86
2024/01/23 10:26:33;;;;;;;0.30;0.20;;;5.70;99.90;;;;;;5079816;28;20179;-79
2024/01/23 10:29:04;;;;;;;0.30;0.20;;;5.70;99.90;;;;;;5076235;28;20561;-84
2024/01/23 10:31:29;;;;;;;0.30;0.20;;;5.80;99.90;;;;;;5079817;28;20180;-86
2024/01/23 10:33:57;;;;;;;0.30;0.20;;;5.80;99.90;;;;;;5082245;28;20437;-78
2024/01/23 10:36:24;;;;;;;0.30;0.20;;;5.80;99.90;;;;;;5080650;28;20273;-79
2024/01/23 10:38:50;;;;;;;0.30;0.20;;;5.90;99.90;;;;;;5083750;28;20676;-79
2024/01/23 10:41:18;;;;;;;0.30;0.20;;;5.90;99.90;;;;;;5082381;28;20203;-78
2024/01/23 10:43:46;;;;;;;0.30;0.20;;;6.00;99.90;;;;;;5084213;28;20295;-79
2024/01/23 10:46:12;;;;;;;0.30;0.30;;;6.10;99.90;;;;;;5088865;28;20185;-85
2024/01/23 10:48:39;;;;;;;0.30;0.20;;;6.10;99.90;;;;;;5088429;28;20204;-85
2024/01/23 10:51:18;;;;;;;0.30;0.20;;;6.30;99.90;;;;;;5075561;28;20391;-78
2024/01/23 10:53:57;;;;;;;0.88;0.88;;;6.40;99.90;;;;;;5086965;28;20223;-85
2024/01/23 10:56:24;;;;;;;0.30;0.30;;;6.40;99.90;;;;;;5085533;28;20530;-78
2024/01/23 10:59:17;;;;;;;0.35;0.32;;;6.50;99.90;;;;;;5087624;28;20232;-86
2024/01/23 11:01:45;;;;;;;0.30;0.20;;;6.50;99.90;;;;;;5075944;28;20432;-85
2024/01/23 11:04:11;;;;;;;0.30;0.20;;;6.50;99.90;;;;;;5078487;28;20201;-85
2024/01/23 11:06:49;;;;;;;0.30;0.20;;;6.60;99.90;;;;;;5078299;28;20259;-79
2024/01/23 11:09:20;;;;;;;0.30;0.20;;;6.60;99.90;;;;;;5079045;28;20866;-85
2024/01/23 11:11:58;;;;;;;0.30;0.20;;;6.60;99.90;;;;;;5080822;28;20181;-85
2024/01/23 11:14:35;;;;;;;0.30;0.20;;;6.60;99.90;;;;;;5078524;28;20257;-86
2024/01/23 11:17:06;;;;;;;44.80;40.00;;;6.60;99.90;;;;;;5080833;28;20492;-78
2024/01/23 11:19:46;;;;;;;0.30;0.20;;;6.60;99.90;;;;;;5084313;28;20210;-78
2024/01/23 11:22:12;;;;;;;0.88;0.85;;;6.70;99.90;;;;;;5084081;28;20184;-85
2024/01/23 11:24:43;;;;;;;0.30;0.20;;;6.80;99.90;;;;;;5085315;28;20212;-79
2024/01/23 11:27:21;;;;;;;0.30;0.20;;;6.80;99.90;;;;;;5079307;28;20181;-79
2024/01/23 11:29:48;;;;;;;0.30;0.20;;;6.90;99.90;;;;;;5076529;28;20185;-79
2024/01/23 11:32:22;;;;;;;0.30;0.20;;;7.00;99.90;;;;;;5074468;28;20176;-79
2024/01/23 11:34:58;;;;;;;0.30;0.20;;;7.10;99.90;;;;;;5085840;28;20179;-78
2024/01/23 11:37:33;;;;;;;0.30;0.30;;;7.10;99.90;;;;;;5078509;28;20200;-79
2024/01/23 11:39:59;;;;;;;0.30;0.30;;;7.20;99.90;;;;;;5080026;28;20571;-78
2024/01/23 11:42:40;;;;;;;0.30;0.30;;;7.40;99.90;;;;;;5086076;28;20768;-79
2024/01/23 11:45:28;;;;;;;0.30;0.20;;;7.50;99.90;;;;;;5076026;28;20537;-86
2024/01/23 11:48:20;;;;;;;0.30;0.20;;;7.80;99.90;;;;;;5075360;28;20193;-79
2024/01/23 11:50:46;;;;;;;0.30;0.20;;;8.00;99.90;;;;;;5101279;27;20192;-79
2024/01/23 11:53:13;;;;;;;0.30;0.30;;;8.20;99.90;;;;;;5080135;28;20258;-85
2024/01/23 11:55:39;;;;;;;0.30;0.30;;;8.30;99.90;;;;;;5078251;28;20450;-86
2024/01/23 11:58:05;;;;;;;0.53;0.50;;;8.40;99.90;;;;;;5077474;28;20242;-86
2024/01/23 12:00:30;;;;;;;0.30;0.20;;;8.60;99.90;;;;;;5075414;28;20275;-86
2024/01/23 12:02:57;;;;;;;0.30;0.20;;;8.60;99.90;;;;;;5078068;28;20465;-79
2024/01/23 12:05:23;;;;;;;2.05;1.95;;;8.80;99.90;;;;;;5078900;28;20211;-86
2024/01/23 12:07:49;;;;;;;2.10;1.60;;;8.90;99.90;;;;;;5078090;28;20193;-78
2024/01/23 12:10:16;;;;;;;0.30;0.20;;;9.00;99.90;;;;;;5081522;28;20271;-85
2024/01/23 12:12:42;;;;;;;0.30;0.20;;;9.10;99.90;;;;;;5080789;28;20204;-86
2024/01/23 12:15:08;;;;;;;0.30;0.20;;;9.10;99.90;;;;;;5079138;28;20229;-86
2024/01/23 12:17:36;;;;;;;0.30;0.20;;;9.10;99.90;;;;;;5077199;28;20303;-79
2024/01/23 12:20:09;;;;;;;0.30;0.30;;;9.20;99.90;;;;;;5082779;28;20180;-79
2024/01/23 12:22:39;;;;;;;0.77;0.77;;;9.20;99.90;;;;;;5082492;28;20184;-83
2024/01/23 12:25:09;;;;;;;0.30;0.20;;;9.20;99.90;;;;;;5079370;28;20191;-79
2024/01/23 12:27:35;;;;;;;0.30;0.20;;;9.20;99.90;;;;;;5081980;28;21164;-79
2024/01/23 12:30:02;;;;;;;0.83;0.77;;;9.30;99.90;;;;;;5076492;28;20707;-79
2024/01/23 12:32:29;;;;;;;0.30;0.20;;;9.30;99.90;;;;;;5077058;28;20181;-79
2024/01/23 12:34:56;;;;;;;1.60;1.60;;;9.30;99.90;;;;;;5080951;28;20263;-86
2024/01/23 12:37:29;;;;;;;0.30;0.20;;;9.30;99.90;;;;;;5071183;28;20295;-86
2024/01/23 12:39:58;;;;;;;0.30;0.20;;;9.30;99.90;;;;;;5078169;28;20197;-85
2024/01/23 12:42:24;;;;;;;0.30;0.20;;;9.30;99.90;;;;;;5076276;28;20259;-79
2024/01/23 12:44:50;;;;;;;0.30;0.20;;;9.30;99.90;;;;;;5069762;28;20267;-80
2024/01/23 12:47:15;;;;;;;0.30;0.20;;;9.20;99.90;;;;;;5071333;28;20173;-79
2024/01/23 12:49:41;;;;;;;0.30;0.20;;;9.20;99.90;;;;;;5076572;28;20573;-79
2024/01/23 12:52:18;;;;;;;0.87;0.87;;;9.20;99.90;;;;;;5071446;28;20737;-78
2024/01/23 12:54:44;;;;;;;0.30;0.20;;;9.30;99.90;;;;;;5073385;28;20455;-78
2024/01/23 12:57:12;;;;;;;0.30;0.20;;;9.30;99.90;;;;;;5069781;28;20212;-78